Plattville, Illinois
Current Conditions -  °F | °C
As of 3:35 PM on Friday 28 Nov 2014 (Local Time) from KC09 Reporting Station
Broken Clouds Broken Clouds  
Wind Chill: 28°   Ceiling: 2100
Heat Index: 35°   Visibility: 10mi
Dew Point: 31°   Wind: 9mph
Humidity: 85%   Direction: 170°S
Pressure: 29.98"   Gusts: NA
Location:  41.5984°N, 88.4334°W
Report Text: KC09 282135Z AUTO 17008KT 10SM BKN021 02/00 A2998 RMK AO2 T00171005
Loading
Personal Weather Stations






























Interactive Weather Map New forecast layout! Learn more

10-Day Weather Forecast

Advertisements
Track Severe Weather on mobile